createdAt,value
2023-03-19T00:00:29.893Z,8.50
2023-03-19T00:02:56.710Z,8.50
2023-03-19T00:05:23.551Z,8.50
2023-03-19T00:07:50.545Z,8.50
2023-03-19T00:10:17.722Z,8.50
2023-03-19T00:12:44.424Z,8.50
2023-03-19T00:15:14.467Z,8.50
2023-03-19T00:17:43.020Z,8.50
2023-03-19T00:20:11.886Z,8.50
2023-03-19T00:22:39.837Z,8.40
2023-03-19T00:25:08.365Z,8.40
2023-03-19T00:27:36.171Z,8.50
2023-03-19T00:30:04.438Z,8.40
2023-03-19T00:32:31.516Z,8.40
2023-03-19T00:34:58.160Z,8.30
2023-03-19T00:37:25.063Z,8.20
2023-03-19T00:39:51.750Z,8.20
2023-03-19T00:42:18.534Z,8.30
2023-03-19T00:44:45.209Z,8.30
2023-03-19T00:47:12.431Z,8.30
2023-03-19T00:49:39.523Z,8.30
2023-03-19T00:52:06.348Z,8.30
2023-03-19T00:54:33.316Z,8.30
2023-03-19T00:57:00.739Z,8.30
2023-03-19T00:59:27.541Z,8.30
2023-03-19T01:01:54.185Z,8.20
2023-03-19T01:04:21.706Z,8.20
2023-03-19T01:06:48.646Z,8.20
2023-03-19T01:09:16.084Z,8.20
2023-03-19T01:11:43.398Z,8.20
2023-03-19T01:14:10.736Z,8.10
2023-03-19T01:16:37.520Z,8.20
2023-03-19T01:19:05.499Z,8.20
2023-03-19T01:21:32.746Z,8.20
2023-03-19T01:23:59.646Z,8.10
2023-03-19T01:26:27.287Z,8.20
2023-03-19T01:28:54.284Z,8.10
2023-03-19T01:31:22.020Z,8.10
2023-03-19T01:33:48.936Z,8.10
2023-03-19T01:36:15.742Z,8.10
2023-03-19T01:38:42.727Z,8.00
2023-03-19T01:41:09.829Z,8.10
2023-03-19T01:43:36.721Z,8.10
2023-03-19T01:46:08.092Z,8.10
2023-03-19T01:48:34.805Z,8.10
2023-03-19T01:51:01.939Z,8.20
2023-03-19T01:53:32.865Z,8.30
2023-03-19T01:56:23.742Z,8.40
2023-03-19T01:58:55.770Z,8.50
2023-03-19T02:01:23.065Z,8.50
2023-03-19T02:03:51.850Z,8.50
2023-03-19T02:06:20.986Z,8.50
2023-03-19T02:08:49.674Z,8.50
2023-03-19T02:11:18.098Z,8.50
2023-03-19T02:13:45.263Z,8.50
2023-03-19T02:16:12.378Z,8.50
2023-03-19T02:18:39.429Z,8.50
2023-03-19T02:21:16.250Z,8.50
2023-03-19T02:24:03.413Z,8.50
2023-03-19T02:26:31.363Z,8.40
2023-03-19T02:28:58.080Z,8.40
2023-03-19T02:31:25.033Z,8.50
2023-03-19T02:33:58.186Z,8.50
2023-03-19T02:36:37.569Z,8.40
2023-03-19T02:39:07.670Z,8.50
2023-03-19T02:41:36.889Z,8.40
2023-03-19T02:44:04.935Z,8.40
2023-03-19T02:46:31.964Z,8.30
2023-03-19T02:48:59.087Z,8.30
2023-03-19T02:51:26.180Z,8.40
2023-03-19T02:53:52.878Z,8.50
2023-03-19T02:56:19.602Z,8.40
2023-03-19T02:58:46.351Z,8.40
2023-03-19T03:01:13.103Z,8.30
2023-03-19T03:03:39.923Z,8.30
2023-03-19T03:06:07.032Z,8.30
2023-03-19T03:08:33.787Z,8.30
2023-03-19T03:11:00.516Z,8.30
2023-03-19T03:13:27.934Z,8.30
2023-03-19T03:15:54.766Z,8.40
2023-03-19T03:18:21.462Z,8.40
2023-03-19T03:20:49.013Z,8.40
2023-03-19T03:23:17.183Z,8.30
2023-03-19T03:25:43.978Z,8.30
2023-03-19T03:28:10.971Z,8.30
2023-03-19T03:30:38.320Z,8.30
2023-03-19T03:33:05.195Z,8.30
2023-03-19T03:35:32.366Z,8.30
2023-03-19T03:37:59.165Z,8.30
2023-03-19T03:40:26.222Z,8.30
2023-03-19T03:42:53.154Z,8.20
2023-03-19T03:45:19.877Z,8.20
2023-03-19T03:47:47.447Z,8.10
2023-03-19T03:50:14.126Z,8.20
2023-03-19T03:52:42.088Z,8.20
2023-03-19T03:55:09.922Z,8.20
2023-03-19T03:57:37.256Z,8.20
2023-03-19T04:00:05.092Z,8.10
2023-03-19T04:02:32.057Z,8.10
2023-03-19T04:04:58.852Z,8.10
2023-03-19T04:07:25.856Z,8.10
2023-03-19T04:09:52.556Z,8.10
2023-03-19T04:12:19.467Z,8.10
2023-03-19T04:14:46.612Z,8.00
2023-03-19T04:17:13.323Z,8.00
2023-03-19T04:19:40.224Z,8.00
2023-03-19T04:22:08.500Z,8.00
2023-03-19T04:24:35.186Z,8.00
2023-03-19T04:27:02.443Z,8.00
2023-03-19T04:29:29.226Z,8.00
2023-03-19T04:31:55.884Z,8.00
2023-03-19T04:34:22.565Z,8.00
2023-03-19T04:36:49.976Z,7.90
2023-03-19T04:39:16.759Z,8.00
2023-03-19T04:41:43.932Z,8.00
2023-03-19T04:44:10.968Z,8.00
2023-03-19T04:46:37.663Z,8.00
2023-03-19T04:49:04.476Z,8.00
2023-03-19T04:51:31.201Z,8.00
2023-03-19T04:53:57.870Z,8.00
2023-03-19T04:56:24.609Z,8.00
2023-03-19T04:58:51.311Z,8.00
2023-03-19T05:01:18.110Z,8.00
2023-03-19T05:03:45.543Z,8.00
2023-03-19T05:06:12.345Z,8.00
2023-03-19T05:08:39.036Z,8.00
2023-03-19T05:11:05.747Z,8.00
2023-03-19T05:13:32.435Z,8.00
2023-03-19T05:15:59.443Z,8.00
2023-03-19T05:18:26.290Z,8.00
2023-03-19T05:20:53.341Z,8.00
2023-03-19T05:23:20.101Z,8.00
2023-03-19T05:25:47.782Z,8.00
2023-03-19T05:28:14.883Z,8.00
2023-03-19T05:30:42.497Z,8.00
2023-03-19T05:33:09.417Z,8.00
2023-03-19T05:35:37.859Z,8.00
2023-03-19T05:38:04.551Z,8.00
2023-03-19T05:40:31.958Z,8.00
2023-03-19T05:42:58.752Z,8.00
2023-03-19T05:45:25.666Z,8.00
2023-03-19T05:47:52.380Z,8.00
2023-03-19T05:50:19.329Z,8.00
2023-03-19T05:52:46.141Z,8.00
2023-03-19T05:55:12.864Z,8.00
2023-03-19T05:57:39.845Z,8.00
2023-03-19T06:00:07.903Z,7.90
2023-03-19T06:02:36.421Z,7.90
2023-03-19T06:05:03.591Z,7.90
2023-03-19T06:07:30.323Z,8.00
2023-03-19T06:09:57.055Z,8.00
2023-03-19T06:12:24.811Z,8.00
2023-03-19T06:14:51.967Z,8.00
2023-03-19T06:17:19.735Z,7.90
2023-03-19T06:19:46.434Z,7.90
2023-03-19T06:22:13.172Z,7.90
2023-03-19T06:24:40.127Z,7.90
2023-03-19T06:27:06.920Z,7.90
2023-03-19T06:29:33.658Z,7.90
2023-03-19T06:32:00.540Z,7.90
2023-03-19T06:34:27.659Z,8.00
2023-03-19T06:36:54.458Z,8.00
2023-03-19T06:39:21.940Z,8.00
2023-03-19T06:41:48.990Z,8.00
2023-03-19T06:44:16.439Z,8.00
2023-03-19T06:46:43.155Z,8.00
2023-03-19T06:49:09.862Z,8.00
2023-03-19T06:51:36.733Z,8.00
2023-03-19T06:54:03.988Z,8.00
2023-03-19T06:56:30.787Z,8.00
2023-03-19T06:58:57.544Z,8.00
2023-03-19T07:01:24.329Z,8.00
2023-03-19T07:03:51.101Z,8.10
2023-03-19T07:06:18.281Z,8.10
2023-03-19T07:08:47.891Z,8.10
2023-03-19T07:11:16.583Z,8.10
2023-03-19T07:13:43.262Z,8.10
2023-03-19T07:16:10.180Z,8.10
2023-03-19T07:18:37.000Z,8.10
2023-03-19T07:21:04.572Z,8.10
2023-03-19T07:23:31.557Z,8.20
2023-03-19T07:25:58.622Z,8.20
2023-03-19T07:28:25.735Z,8.20
2023-03-19T07:30:53.579Z,8.20
2023-03-19T07:33:21.255Z,8.20
2023-03-19T07:35:48.517Z,8.30
2023-03-19T07:38:15.690Z,8.30
2023-03-19T07:40:51.345Z,8.30
2023-03-19T07:43:26.168Z,8.30
2023-03-19T07:45:53.232Z,8.30
2023-03-19T07:48:20.094Z,8.40
2023-03-19T07:50:47.029Z,8.40
2023-03-19T07:53:13.741Z,8.50
2023-03-19T07:55:40.442Z,8.50
2023-03-19T07:58:07.546Z,8.60
2023-03-19T08:00:34.828Z,8.60
2023-03-19T08:03:01.698Z,8.60
2023-03-19T08:05:28.552Z,8.60
2023-03-19T08:07:55.648Z,8.70
2023-03-19T08:10:22.441Z,8.70
2023-03-19T08:12:49.131Z,8.70
2023-03-19T08:15:15.911Z,8.80
2023-03-19T08:17:42.583Z,8.80
2023-03-19T08:20:12.221Z,8.80
2023-03-19T08:22:40.407Z,8.90
2023-03-19T08:25:07.837Z,8.90
2023-03-19T08:27:36.124Z,9.00
2023-03-19T08:30:07.451Z,9.00
2023-03-19T08:32:34.831Z,9.00
2023-03-19T08:35:01.877Z,9.10
2023-03-19T08:37:28.772Z,9.10
2023-03-19T08:39:55.524Z,9.20
2023-03-19T08:42:22.786Z,9.30
2023-03-19T08:44:50.225Z,9.30
2023-03-19T08:47:17.044Z,9.40
2023-03-19T08:49:43.905Z,9.50
2023-03-19T08:52:10.749Z,9.50
2023-03-19T08:54:37.622Z,9.50
2023-03-19T08:57:04.753Z,9.60
2023-03-19T08:59:34.029Z,9.70
2023-03-19T09:02:01.625Z,9.70
2023-03-19T09:04:28.916Z,9.80
2023-03-19T09:06:56.096Z,9.90
2023-03-19T09:09:24.792Z,10.00
2023-03-19T09:11:51.811Z,10.00
2023-03-19T09:14:20.653Z,10.10
2023-03-19T09:16:47.462Z,10.10
2023-03-19T09:19:14.421Z,10.30
2023-03-19T09:21:41.520Z,10.40
2023-03-19T09:24:08.396Z,10.60
2023-03-19T09:26:35.313Z,10.70
2023-03-19T09:29:03.599Z,10.80
2023-03-19T09:31:30.728Z,11.10
2023-03-19T09:33:57.577Z,11.30
2023-03-19T09:36:24.476Z,11.70
2023-03-19T09:38:51.958Z,12.00
2023-03-19T09:41:48.442Z,12.20
2023-03-19T09:44:24.048Z,12.30
2023-03-19T09:47:09.014Z,12.40
2023-03-19T09:49:43.456Z,12.50
2023-03-19T09:52:37.690Z,12.90
2023-03-19T09:55:24.872Z,13.10
2023-03-19T09:57:57.917Z,13.40
2023-03-19T10:00:30.078Z,13.60
2023-03-19T10:03:14.350Z,13.90
2023-03-19T10:05:57.074Z,14.00
2023-03-19T10:08:56.968Z,13.90
2023-03-19T10:11:45.822Z,13.90
2023-03-19T10:14:26.203Z,14.20
2023-03-19T10:16:57.341Z,14.50
2023-03-19T10:19:45.690Z,14.60
2023-03-19T10:22:19.276Z,14.80
2023-03-19T10:24:48.660Z,14.90
2023-03-19T10:27:18.770Z,14.90
2023-03-19T10:29:47.527Z,14.90
2023-03-19T10:32:14.170Z,14.90
2023-03-19T10:34:53.917Z,14.90
2023-03-19T10:37:27.498Z,14.90
2023-03-19T10:39:59.688Z,15.20
2023-03-19T10:42:35.962Z,15.30
2023-03-19T10:45:29.292Z,15.30
2023-03-19T10:47:59.893Z,15.30
2023-03-19T10:50:37.381Z,15.40
2023-03-19T10:53:15.948Z,15.20
2023-03-19T10:55:56.554Z,15.10
2023-03-19T10:58:28.767Z,15.10
2023-03-19T11:01:10.930Z,15.20
2023-03-19T11:03:55.712Z,15.20
2023-03-19T11:06:33.264Z,15.30
2023-03-19T11:09:02.143Z,15.30
2023-03-19T11:11:53.384Z,15.60
2023-03-19T11:14:43.683Z,15.70
2023-03-19T11:17:39.264Z,15.80
2023-03-19T11:20:15.760Z,15.90
2023-03-19T11:22:43.003Z,15.90
2023-03-19T11:25:27.052Z,15.90
2023-03-19T11:28:08.319Z,15.80
2023-03-19T11:30:43.879Z,15.70
2023-03-19T11:33:32.750Z,15.80
2023-03-19T11:36:17.450Z,16.00
2023-03-19T11:39:13.418Z,16.00
2023-03-19T11:42:10.424Z,16.30
2023-03-19T11:44:47.128Z,16.30
2023-03-19T11:47:27.460Z,16.00
2023-03-19T11:50:18.614Z,15.80
2023-03-19T11:53:10.002Z,15.70
2023-03-19T11:55:49.529Z,15.60
2023-03-19T11:58:53.190Z,15.70
2023-03-19T12:01:43.100Z,15.80
2023-03-19T12:04:33.994Z,15.90
2023-03-19T12:07:01.066Z,15.80
2023-03-19T12:09:43.891Z,15.80
2023-03-19T12:12:26.656Z,15.70
2023-03-19T12:15:02.870Z,15.70
2023-03-19T12:17:43.949Z,15.60
2023-03-19T12:20:20.217Z,15.60
2023-03-19T12:23:00.698Z,15.90
2023-03-19T12:25:36.498Z,15.90
2023-03-19T12:28:36.411Z,15.80
2023-03-19T12:31:37.108Z,15.70
2023-03-19T12:34:33.017Z,15.70
2023-03-19T12:37:16.342Z,15.80
2023-03-19T12:40:03.596Z,15.90
2023-03-19T12:42:37.589Z,15.80
2023-03-19T12:45:17.689Z,15.70
2023-03-19T12:47:46.581Z,15.70
2023-03-19T12:50:17.426Z,15.70
2023-03-19T12:52:53.043Z,15.60
2023-03-19T12:55:36.594Z,15.60
2023-03-19T12:58:17.939Z,15.50
2023-03-19T13:01:12.475Z,15.50
2023-03-19T13:04:16.362Z,15.60
2023-03-19T13:06:51.677Z,15.60
2023-03-19T13:09:34.200Z,15.60
2023-03-19T13:12:21.462Z,15.60
2023-03-19T13:15:19.322Z,15.50
2023-03-19T13:17:55.702Z,15.60
2023-03-19T13:20:32.234Z,15.60
2023-03-19T13:23:02.654Z,15.60
2023-03-19T13:25:43.651Z,15.60
2023-03-19T13:28:12.861Z,15.50
2023-03-19T13:30:40.574Z,15.40
2023-03-19T13:33:17.428Z,15.30
2023-03-19T13:35:52.119Z,15.40
2023-03-19T13:38:34.841Z,15.30
2023-03-19T13:41:02.347Z,15.30
2023-03-19T13:43:29.433Z,15.20
2023-03-19T13:46:15.981Z,15.20
2023-03-19T13:48:45.869Z,15.20
2023-03-19T13:51:12.582Z,15.20
2023-03-19T13:53:42.325Z,15.20
2023-03-19T13:56:28.983Z,15.20
2023-03-19T13:59:15.416Z,15.30
2023-03-19T14:01:47.513Z,15.30
2023-03-19T14:04:37.199Z,15.20
2023-03-19T14:07:11.602Z,15.10
2023-03-19T14:09:43.068Z,15.10
2023-03-19T14:12:09.735Z,15.00
2023-03-19T14:14:45.902Z,14.90
2023-03-19T14:17:37.531Z,14.90
2023-03-19T14:20:14.544Z,14.90
2023-03-19T14:22:56.777Z,15.00
2023-03-19T14:25:29.099Z,15.00
2023-03-19T14:27:59.398Z,15.10
2023-03-19T14:30:47.001Z,15.10
2023-03-19T14:33:25.507Z,15.10
2023-03-19T14:35:52.885Z,15.00
2023-03-19T14:38:45.290Z,15.00
2023-03-19T14:41:17.201Z,14.90
2023-03-19T14:44:02.197Z,14.80
2023-03-19T14:46:53.814Z,14.90
2023-03-19T14:49:48.989Z,15.00
2023-03-19T14:52:39.758Z,15.00
2023-03-19T14:55:15.199Z,15.00
2023-03-19T14:57:42.012Z,14.90
2023-03-19T15:00:16.019Z,14.90
2023-03-19T15:02:44.418Z,14.80
2023-03-19T15:05:17.159Z,14.80
2023-03-19T15:07:46.498Z,14.70
2023-03-19T15:10:22.137Z,14.60
2023-03-19T15:13:27.483Z,14.60
2023-03-19T15:16:12.377Z,14.60
2023-03-19T15:18:39.265Z,14.60
2023-03-19T15:21:06.742Z,14.70
2023-03-19T15:23:33.901Z,14.60
2023-03-19T15:26:03.157Z,14.60
2023-03-19T15:28:45.881Z,14.60
2023-03-19T15:31:30.436Z,14.60
2023-03-19T15:33:59.721Z,14.50
2023-03-19T15:36:33.244Z,14.50
2023-03-19T15:39:07.397Z,14.50
2023-03-19T15:41:41.714Z,14.40
2023-03-19T15:44:15.596Z,14.40
2023-03-19T15:46:44.585Z,14.40
2023-03-19T15:49:28.425Z,14.40
2023-03-19T15:52:01.581Z,14.20
2023-03-19T15:54:28.574Z,14.20
2023-03-19T15:56:56.899Z,14.20
2023-03-19T15:59:27.486Z,14.20
2023-03-19T16:02:01.740Z,14.20
2023-03-19T16:04:30.124Z,14.20
2023-03-19T16:06:58.591Z,14.10
2023-03-19T16:09:33.187Z,14.00
2023-03-19T16:12:01.349Z,14.00
2023-03-19T16:14:32.210Z,14.00
2023-03-19T16:17:17.344Z,13.90
2023-03-19T16:20:01.987Z,13.80
2023-03-19T16:22:33.255Z,13.70
2023-03-19T16:25:02.360Z,13.60
2023-03-19T16:27:40.790Z,13.50
2023-03-19T16:30:22.482Z,13.30
2023-03-19T16:33:04.277Z,13.30
2023-03-19T16:35:33.460Z,13.20
2023-03-19T16:38:13.183Z,13.10
2023-03-19T16:40:46.753Z,13.10
2023-03-19T16:43:19.035Z,13.00
2023-03-19T16:45:50.692Z,13.00
2023-03-19T16:48:17.550Z,13.00
2023-03-19T16:50:45.262Z,12.80
2023-03-19T16:53:22.607Z,12.80
2023-03-19T16:55:50.527Z,12.80
2023-03-19T16:58:32.602Z,12.80
2023-03-19T17:00:59.688Z,12.70
2023-03-19T17:03:26.784Z,12.60
2023-03-19T17:05:53.546Z,12.60
2023-03-19T17:08:21.840Z,12.50
2023-03-19T17:10:51.566Z,12.50
2023-03-19T17:13:28.071Z,12.40
2023-03-19T17:15:58.117Z,12.40
2023-03-19T17:18:28.259Z,12.40
2023-03-19T17:21:02.082Z,12.40
2023-03-19T17:23:30.428Z,12.40
2023-03-19T17:25:57.672Z,12.40
2023-03-19T17:28:24.826Z,12.40
2023-03-19T17:30:51.896Z,12.30
2023-03-19T17:33:27.509Z,12.30
2023-03-19T17:35:56.154Z,12.20
2023-03-19T17:38:28.982Z,12.30
2023-03-19T17:40:55.654Z,12.30
2023-03-19T17:43:22.401Z,12.20
2023-03-19T17:45:49.801Z,12.20
2023-03-19T17:48:26.030Z,12.10
2023-03-19T17:50:55.932Z,12.10
2023-03-19T17:53:22.653Z,12.10
2023-03-19T17:55:49.515Z,12.00
2023-03-19T17:58:21.687Z,11.90
2023-03-19T18:00:50.467Z,11.90
2023-03-19T18:03:20.844Z,11.90
2023-03-19T18:05:47.993Z,11.90
2023-03-19T18:08:17.964Z,11.80
2023-03-19T18:10:45.303Z,11.80
2023-03-19T18:13:12.811Z,11.80
2023-03-19T18:15:42.505Z,11.90
2023-03-19T18:18:21.304Z,11.80
2023-03-19T18:20:48.544Z,11.80
2023-03-19T18:23:16.191Z,11.80
2023-03-19T18:25:44.554Z,11.80
2023-03-19T18:28:11.855Z,11.80
2023-03-19T18:30:40.593Z,11.80
2023-03-19T18:33:13.653Z,11.80
2023-03-19T18:35:44.698Z,11.80
2023-03-19T18:38:21.547Z,11.80
2023-03-19T18:40:49.112Z,11.80
2023-03-19T18:43:16.524Z,11.80
2023-03-19T18:45:45.894Z,11.70
2023-03-19T18:48:31.410Z,11.70
2023-03-19T18:50:58.231Z,11.70
2023-03-19T18:53:25.929Z,11.70
2023-03-19T18:55:52.649Z,11.70
2023-03-19T18:58:25.208Z,11.70
2023-03-19T19:00:53.105Z,11.60
2023-03-19T19:03:22.938Z,11.60
2023-03-19T19:05:49.894Z,11.60
2023-03-19T19:08:19.384Z,11.50
2023-03-19T19:11:01.855Z,11.50
2023-03-19T19:13:36.652Z,11.50
2023-03-19T19:16:09.803Z,11.40
2023-03-19T19:18:36.478Z,11.40
2023-03-19T19:21:03.330Z,11.30
2023-03-19T19:23:30.374Z,11.30
2023-03-19T19:25:57.198Z,11.20
2023-03-19T19:28:34.999Z,11.30
2023-03-19T19:31:02.238Z,11.20
2023-03-19T19:33:34.648Z,11.20
2023-03-19T19:36:02.436Z,11.10
2023-03-19T19:38:30.201Z,11.10
2023-03-19T19:41:00.004Z,11.00
2023-03-19T19:43:30.963Z,11.00
2023-03-19T19:45:58.962Z,10.90
2023-03-19T19:48:28.053Z,10.80
2023-03-19T19:50:56.698Z,10.80
2023-03-19T19:53:26.109Z,10.70
2023-03-19T19:55:53.564Z,10.70
2023-03-19T19:58:24.599Z,10.70
2023-03-19T20:01:02.938Z,10.70
2023-03-19T20:03:32.947Z,10.70
2023-03-19T20:06:00.756Z,10.70
2023-03-19T20:08:28.587Z,10.70
2023-03-19T20:10:56.974Z,10.60
2023-03-19T20:13:29.118Z,10.60
2023-03-19T20:15:58.159Z,10.60
2023-03-19T20:18:31.808Z,10.50
2023-03-19T20:21:00.154Z,10.50
2023-03-19T20:23:27.071Z,10.30
2023-03-19T20:25:54.919Z,10.30
2023-03-19T20:28:32.604Z,10.20
2023-03-19T20:31:00.569Z,10.10
2023-03-19T20:33:28.607Z,10.10
2023-03-19T20:35:55.433Z,10.10
2023-03-19T20:38:22.333Z,10.00
2023-03-19T20:40:54.716Z,9.80
2023-03-19T20:43:29.033Z,9.70
2023-03-19T20:46:02.875Z,9.70
2023-03-19T20:48:30.922Z,9.60
2023-03-19T20:50:58.521Z,9.60
2023-03-19T20:53:25.702Z,9.60
2023-03-19T20:55:52.632Z,9.60
2023-03-19T20:58:29.581Z,9.50
2023-03-19T21:00:57.966Z,9.40
2023-03-19T21:03:30.336Z,9.40
2023-03-19T21:06:06.017Z,9.30
2023-03-19T21:08:37.250Z,9.20
2023-03-19T21:11:04.197Z,9.30
2023-03-19T21:13:32.231Z,9.30
2023-03-19T21:15:59.573Z,9.30
2023-03-19T21:18:26.674Z,9.30
2023-03-19T21:20:56.845Z,9.20
2023-03-19T21:23:31.883Z,9.30
2023-03-19T21:25:59.953Z,9.30
2023-03-19T21:28:35.341Z,9.30
2023-03-19T21:31:02.341Z,9.30
2023-03-19T21:33:34.024Z,9.20
2023-03-19T21:36:03.248Z,9.20
2023-03-19T21:38:30.035Z,9.10
2023-03-19T21:40:59.422Z,9.10
2023-03-19T21:43:42.904Z,9.10
2023-03-19T21:46:24.248Z,9.00
2023-03-19T21:48:53.155Z,9.00
2023-03-19T21:51:20.546Z,9.00
2023-03-19T21:53:47.689Z,8.90
2023-03-19T21:56:22.059Z,8.80
2023-03-19T21:58:50.861Z,8.80
2023-03-19T22:01:20.669Z,8.70
2023-03-19T22:03:47.420Z,8.70
2023-03-19T22:06:14.202Z,8.60
2023-03-19T22:08:41.683Z,8.70
2023-03-19T22:11:22.873Z,8.70
2023-03-19T22:13:49.662Z,8.60
2023-03-19T22:16:19.922Z,8.60
2023-03-19T22:18:47.601Z,8.60
2023-03-19T22:21:16.397Z,8.60
2023-03-19T22:23:43.841Z,8.60
2023-03-19T22:26:32.990Z,8.60
2023-03-19T22:29:06.505Z,8.50
2023-03-19T22:31:34.602Z,8.40
2023-03-19T22:34:01.476Z,8.40
2023-03-19T22:36:28.460Z,8.30
2023-03-19T22:38:55.303Z,8.40
2023-03-19T22:41:27.339Z,8.30
2023-03-19T22:43:55.005Z,8.30
2023-03-19T22:46:22.344Z,8.40
2023-03-19T22:48:52.402Z,8.40
2023-03-19T22:51:24.521Z,8.40
2023-03-19T22:53:51.845Z,8.40
2023-03-19T22:56:19.575Z,8.40
2023-03-19T22:58:49.397Z,8.30
2023-03-19T23:01:22.419Z,8.30
2023-03-19T23:03:50.564Z,8.30
2023-03-19T23:06:29.718Z,8.30
2023-03-19T23:08:57.504Z,8.40
2023-03-19T23:11:24.499Z,8.30
2023-03-19T23:13:51.455Z,8.40
2023-03-19T23:16:23.916Z,8.40
2023-03-19T23:18:51.981Z,8.40
2023-03-19T23:21:20.896Z,8.30
2023-03-19T23:23:47.666Z,8.30
2023-03-19T23:26:26.686Z,8.20
2023-03-19T23:28:55.072Z,8.30
2023-03-19T23:31:21.903Z,8.30
2023-03-19T23:33:48.783Z,8.30
2023-03-19T23:36:17.159Z,8.30
2023-03-19T23:38:43.849Z,8.20
2023-03-19T23:41:21.889Z,8.30
2023-03-19T23:43:48.855Z,8.20
2023-03-19T23:46:16.128Z,8.20
2023-03-19T23:48:43.046Z,8.30
2023-03-19T23:51:14.298Z,8.30
2023-03-19T23:53:42.085Z,8.30
2023-03-19T23:56:21.341Z,8.20
2023-03-19T23:58:49.954Z,8.30
